createdAt,value
2022-12-12T00:01:22.543Z,0.80
2022-12-12T00:03:25.148Z,0.80
2022-12-12T00:05:27.850Z,0.90
2022-12-12T00:07:30.676Z,1.00
2022-12-12T00:09:33.147Z,0.90
2022-12-12T00:11:35.750Z,0.90
2022-12-12T00:13:38.612Z,0.80
2022-12-12T00:15:41.096Z,0.80
2022-12-12T00:17:43.681Z,0.70
2022-12-12T00:19:47.095Z,0.70
2022-12-12T00:21:49.924Z,0.60
2022-12-12T00:23:52.796Z,0.60
2022-12-12T00:25:56.356Z,0.60
2022-12-12T00:27:59.957Z,0.60
2022-12-12T00:30:02.704Z,0.60
2022-12-12T00:32:05.479Z,0.60
2022-12-12T00:34:07.940Z,0.60
2022-12-12T00:36:10.866Z,0.70
2022-12-12T00:38:13.371Z,0.70
2022-12-12T00:40:15.908Z,0.70
2022-12-12T00:42:18.949Z,0.60
2022-12-12T00:44:21.624Z,0.60
2022-12-12T00:46:25.360Z,0.70
2022-12-12T00:48:28.353Z,0.80
2022-12-12T00:50:31.373Z,0.80
2022-12-12T00:52:33.832Z,0.80
2022-12-12T00:54:36.329Z,0.80
2022-12-12T00:56:39.348Z,0.80
2022-12-12T00:58:42.073Z,0.70
2022-12-12T01:00:46.867Z,0.70
2022-12-12T01:02:49.493Z,0.70
2022-12-12T01:04:52.127Z,0.70
2022-12-12T01:06:54.607Z,0.80
2022-12-12T01:08:57.113Z,0.80
2022-12-12T01:10:59.666Z,0.70
2022-12-12T01:13:02.887Z,0.70
2022-12-12T01:15:06.800Z,0.60
2022-12-12T01:17:09.384Z,0.70
2022-12-12T01:19:11.824Z,0.60
2022-12-12T01:21:15.340Z,0.60
2022-12-12T01:23:17.865Z,0.70
2022-12-12T01:25:20.691Z,0.80
2022-12-12T01:27:23.308Z,0.70
2022-12-12T01:29:25.963Z,0.70
2022-12-12T01:31:28.494Z,0.70
2022-12-12T01:33:31.453Z,0.70
2022-12-12T01:35:34.733Z,0.90
2022-12-12T01:37:38.258Z,0.90
2022-12-12T01:39:40.832Z,0.90
2022-12-12T01:41:44.517Z,1.00
2022-12-12T01:43:47.428Z,1.00
2022-12-12T01:46:29.962Z,1.00
2022-12-12T01:48:36.940Z,1.00
2022-12-12T01:50:40.220Z,0.90
2022-12-12T01:52:44.023Z,1.00
2022-12-12T01:54:48.344Z,1.00
2022-12-12T01:56:51.428Z,1.10
2022-12-12T01:58:55.411Z,1.10
2022-12-12T02:00:58.050Z,1.10
2022-12-12T02:03:00.513Z,1.10
2022-12-12T02:05:04.871Z,1.10
2022-12-12T02:07:07.528Z,1.10
2022-12-12T02:09:12.163Z,1.10
2022-12-12T02:11:14.661Z,1.20
2022-12-12T02:13:18.875Z,1.20
2022-12-12T02:15:21.475Z,1.20
2022-12-12T02:17:31.232Z,1.20
2022-12-12T02:19:45.851Z,1.10
2022-12-12T02:21:50.228Z,1.10
2022-12-12T02:24:14.624Z,1.00
2022-12-12T02:26:42.080Z,1.00
2022-12-12T02:28:51.057Z,1.00
2022-12-12T02:31:01.161Z,1.00
2022-12-12T02:33:11.403Z,0.90
2022-12-12T02:35:16.080Z,0.90
2022-12-12T02:37:20.940Z,0.70
2022-12-12T02:39:25.571Z,0.70
2022-12-12T02:41:29.840Z,0.70
2022-12-12T02:43:34.421Z,0.70
2022-12-12T02:45:38.800Z,0.80
2022-12-12T02:47:43.157Z,0.90
2022-12-12T02:49:47.577Z,0.90
2022-12-12T02:51:50.788Z,1.00
2022-12-12T02:53:53.229Z,1.10
2022-12-12T02:56:02.430Z,1.10
2022-12-12T02:58:05.528Z,1.00
2022-12-12T03:00:10.036Z,1.10
2022-12-12T03:02:41.171Z,1.10
2022-12-12T03:05:05.393Z,1.10
2022-12-12T03:07:27.644Z,1.10
2022-12-12T03:09:33.508Z,1.20
2022-12-12T03:11:39.186Z,1.20
2022-12-12T03:13:44.538Z,1.10
2022-12-12T03:15:49.609Z,1.20
2022-12-12T03:17:54.138Z,1.20
2022-12-12T03:19:59.237Z,1.10
2022-12-12T03:22:03.569Z,1.10
2022-12-12T03:24:08.602Z,1.10
2022-12-12T03:26:12.666Z,1.10
2022-12-12T03:28:17.820Z,1.10
2022-12-12T03:30:20.921Z,1.10
2022-12-12T03:32:25.218Z,1.20
2022-12-12T03:34:29.550Z,1.10
2022-12-12T03:36:33.833Z,1.20
2022-12-12T03:38:38.542Z,1.10
2022-12-12T03:40:43.504Z,1.10
2022-12-12T03:42:47.818Z,1.10
2022-12-12T03:44:52.161Z,1.10
2022-12-12T03:46:56.271Z,1.10
2022-12-12T03:49:01.338Z,1.20
2022-12-12T03:51:04.897Z,1.10
2022-12-12T03:53:09.202Z,1.10
2022-12-12T03:55:13.860Z,1.10
2022-12-12T03:57:19.580Z,1.10
2022-12-12T03:59:27.295Z,1.20
2022-12-12T04:01:30.081Z,1.10
2022-12-12T04:03:34.661Z,1.10
2022-12-12T04:05:42.038Z,1.10
2022-12-12T04:07:46.369Z,1.20
2022-12-12T04:10:07.469Z,1.40
2022-12-12T04:12:30.799Z,1.20
2022-12-12T04:14:41.301Z,1.10
2022-12-12T04:16:44.176Z,1.10
2022-12-12T04:18:50.468Z,1.10
2022-12-12T04:21:14.381Z,1.10
2022-12-12T04:23:19.704Z,1.00
2022-12-12T04:25:25.783Z,1.00
2022-12-12T04:27:30.756Z,1.10
2022-12-12T04:29:37.038Z,1.00
2022-12-12T04:31:41.499Z,0.40
2022-12-12T04:33:45.914Z,1.00
2022-12-12T04:35:50.395Z,1.10
2022-12-12T04:37:55.146Z,1.00
2022-12-12T04:40:00.924Z,1.10
2022-12-12T04:42:05.709Z,1.00
2022-12-12T04:44:10.177Z,0.90
2022-12-12T04:46:15.121Z,0.90
2022-12-12T04:48:20.190Z,0.90
2022-12-12T04:50:24.653Z,0.90
2022-12-12T04:52:31.811Z,0.80
2022-12-12T04:54:37.389Z,0.90
2022-12-12T04:56:51.220Z,0.90
2022-12-12T04:58:56.678Z,0.90
2022-12-12T05:01:02.205Z,0.90
2022-12-12T05:03:08.503Z,1.00
2022-12-12T05:05:17.820Z,1.00
2022-12-12T05:07:25.429Z,1.00
2022-12-12T05:09:28.351Z,0.90
2022-12-12T05:11:30.878Z,0.90
2022-12-12T05:13:36.805Z,0.80
2022-12-12T05:15:44.893Z,0.80
2022-12-12T05:17:54.186Z,0.80
2022-12-12T05:19:57.640Z,0.90
2022-12-12T05:22:00.251Z,1.00
2022-12-12T05:24:02.762Z,1.00
2022-12-12T05:26:08.927Z,1.00
2022-12-12T05:28:12.219Z,1.00
2022-12-12T05:30:14.683Z,0.90
2022-12-12T05:32:17.325Z,0.80
2022-12-12T05:34:19.782Z,0.80
2022-12-12T05:36:22.268Z,0.70
2022-12-12T05:38:24.897Z,0.70
2022-12-12T05:40:27.471Z,0.70
2022-12-12T05:42:29.945Z,0.60
2022-12-12T05:44:32.492Z,0.60
2022-12-12T05:46:34.969Z,0.70
2022-12-12T05:48:37.456Z,0.80
2022-12-12T05:50:40.012Z,0.80
2022-12-12T05:52:42.787Z,0.80
2022-12-12T05:54:45.596Z,0.80
2022-12-12T05:56:48.118Z,0.80
2022-12-12T05:58:50.624Z,0.90
2022-12-12T06:00:57.238Z,0.80
2022-12-12T06:02:58.216Z,0.70
2022-12-12T06:05:00.783Z,0.70
2022-12-12T06:07:03.281Z,0.70
2022-12-12T06:09:05.806Z,0.80
2022-12-12T06:11:08.412Z,0.80
2022-12-12T06:13:10.923Z,0.80
2022-12-12T06:15:13.915Z,0.80
2022-12-12T06:17:16.735Z,0.80
2022-12-12T06:19:19.741Z,0.70
2022-12-12T06:21:22.657Z,0.70
2022-12-12T06:23:25.136Z,0.80
2022-12-12T06:25:27.720Z,0.70
2022-12-12T06:27:30.895Z,0.70
2022-12-12T06:29:33.357Z,0.70
2022-12-12T06:31:35.972Z,0.70
2022-12-12T06:33:38.448Z,0.70
2022-12-12T06:35:40.949Z,0.70
2022-12-12T06:37:44.335Z,0.60
2022-12-12T06:39:46.964Z,0.60
2022-12-12T06:41:49.768Z,0.60
2022-12-12T06:43:52.348Z,0.70
2022-12-12T06:45:56.743Z,0.70
2022-12-12T06:47:59.177Z,0.80
2022-12-12T06:50:01.972Z,0.80
2022-12-12T06:52:05.244Z,0.80
2022-12-12T06:54:07.727Z,0.80
2022-12-12T06:56:12.497Z,0.80
2022-12-12T06:58:15.062Z,0.90
2022-12-12T07:00:18.435Z,0.90
2022-12-12T07:02:26.052Z,0.90
2022-12-12T07:04:25.733Z,0.90
2022-12-12T07:06:28.232Z,0.90
2022-12-12T07:08:30.742Z,0.90
2022-12-12T07:10:34.914Z,0.80
2022-12-12T07:12:37.534Z,0.80
2022-12-12T07:14:40.040Z,0.90
2022-12-12T07:16:45.103Z,0.90
2022-12-12T07:18:47.901Z,0.90
2022-12-12T07:20:50.513Z,0.80
2022-12-12T07:22:53.012Z,0.80
2022-12-12T07:24:55.541Z,0.90
2022-12-12T07:26:58.014Z,1.00
2022-12-12T07:29:02.315Z,0.90
2022-12-12T07:31:05.962Z,0.90
2022-12-12T07:33:08.887Z,1.20
2022-12-12T07:35:11.646Z,0.80
2022-12-12T07:37:16.065Z,0.90
2022-12-12T07:39:20.875Z,0.90
2022-12-12T07:41:23.277Z,0.90
2022-12-12T07:43:26.361Z,0.90
2022-12-12T07:45:29.461Z,0.90
2022-12-12T07:47:31.973Z,0.90
2022-12-12T07:49:34.992Z,0.90
2022-12-12T07:51:38.505Z,0.90
2022-12-12T07:53:41.174Z,0.90
2022-12-12T07:55:43.953Z,0.90
2022-12-12T07:57:46.980Z,0.90
2022-12-12T07:59:50.224Z,0.90
2022-12-12T08:01:52.971Z,0.90
2022-12-12T08:03:56.075Z,1.00
2022-12-12T08:05:59.189Z,1.00
2022-12-12T08:08:01.831Z,1.00
2022-12-12T08:10:05.750Z,1.00
2022-12-12T08:12:08.403Z,1.00
2022-12-12T08:14:13.129Z,0.90
2022-12-12T08:16:16.156Z,0.80
2022-12-12T08:18:18.908Z,0.90
2022-12-12T08:20:22.454Z,0.90
2022-12-12T08:22:24.979Z,0.90
2022-12-12T08:24:28.166Z,0.90
2022-12-12T08:26:31.548Z,1.00
2022-12-12T08:28:34.464Z,1.00
2022-12-12T08:30:37.044Z,0.50
2022-12-12T08:32:39.557Z,1.00
2022-12-12T08:34:42.119Z,1.00
2022-12-12T08:36:45.022Z,1.00
2022-12-12T08:38:47.646Z,1.00
2022-12-12T08:40:50.369Z,1.00
2022-12-12T08:42:52.886Z,1.00
2022-12-12T08:44:55.380Z,1.00
2022-12-12T08:46:57.931Z,1.00
2022-12-12T08:49:00.493Z,1.00
2022-12-12T08:51:03.201Z,1.00
2022-12-12T08:53:05.707Z,1.00
2022-12-12T08:55:08.804Z,1.00
2022-12-12T08:57:11.285Z,1.10
2022-12-12T08:59:14.004Z,1.10
2022-12-12T09:01:17.241Z,1.00
2022-12-12T09:03:22.437Z,1.00
2022-12-12T09:05:24.356Z,1.00
2022-12-12T09:07:26.868Z,1.00
2022-12-12T09:09:29.720Z,1.00
2022-12-12T09:11:32.201Z,1.00
2022-12-12T09:13:35.065Z,1.10
2022-12-12T09:15:38.001Z,1.20
2022-12-12T09:17:40.489Z,1.20
2022-12-12T09:19:43.009Z,1.20
2022-12-12T09:21:45.741Z,1.10
2022-12-12T09:23:48.233Z,0.90
2022-12-12T09:25:51.309Z,1.10
2022-12-12T09:27:53.808Z,1.20
2022-12-12T09:29:56.309Z,1.20
2022-12-12T09:31:59.026Z,1.20
2022-12-12T09:34:01.832Z,1.20
2022-12-12T09:36:06.505Z,1.20
2022-12-12T09:38:14.020Z,1.30
2022-12-12T09:40:18.045Z,1.30
2022-12-12T09:42:21.772Z,1.30
2022-12-12T09:44:25.561Z,1.40
2022-12-12T09:46:30.848Z,1.40
2022-12-12T09:48:37.197Z,1.40
2022-12-12T09:50:41.975Z,1.40
2022-12-12T09:52:44.560Z,1.30
2022-12-12T09:54:48.109Z,1.30
2022-12-12T09:56:57.381Z,1.40
2022-12-12T09:59:02.211Z,1.40
2022-12-12T10:01:07.040Z,1.30
2022-12-12T10:03:14.861Z,1.40
2022-12-12T10:05:23.526Z,1.40
2022-12-12T10:07:27.872Z,1.40
2022-12-12T10:09:53.994Z,1.40
2022-12-12T10:11:59.283Z,1.40
2022-12-12T10:14:04.212Z,1.40
2022-12-12T10:16:10.454Z,1.40
2022-12-12T10:18:15.086Z,1.40
2022-12-12T10:20:19.471Z,1.40
2022-12-12T10:22:25.016Z,1.30
2022-12-12T10:24:30.821Z,1.30
2022-12-12T10:26:33.400Z,1.20
2022-12-12T10:28:36.010Z,1.30
2022-12-12T10:30:40.441Z,1.30
2022-12-12T10:32:46.029Z,1.30
2022-12-12T10:34:52.864Z,1.30
2022-12-12T10:37:00.302Z,1.30
2022-12-12T10:39:06.115Z,1.30
2022-12-12T10:41:11.514Z,1.40
2022-12-12T10:43:16.511Z,1.40
2022-12-12T10:45:23.796Z,1.40
2022-12-12T10:47:26.440Z,1.40
2022-12-12T10:49:29.591Z,1.40
2022-12-12T10:51:36.544Z,1.40
2022-12-12T10:53:40.433Z,1.40
2022-12-12T10:55:44.935Z,1.40
2022-12-12T10:57:47.414Z,1.50
2022-12-12T10:59:51.256Z,1.50
2022-12-12T11:02:10.054Z,1.50
2022-12-12T11:04:04.531Z,1.60
2022-12-12T11:06:09.033Z,1.60
2022-12-12T11:08:19.278Z,1.60
2022-12-12T11:10:27.993Z,1.60
2022-12-12T11:12:33.336Z,1.50
2022-12-12T11:14:37.523Z,1.60
2022-12-12T11:16:41.956Z,1.60
2022-12-12T11:18:52.321Z,1.60
2022-12-12T11:20:58.590Z,1.60
2022-12-12T11:23:01.867Z,1.60
2022-12-12T11:25:05.663Z,1.60
2022-12-12T11:27:10.230Z,1.60
2022-12-12T11:29:22.664Z,1.60
2022-12-12T11:31:27.038Z,1.60
2022-12-12T11:33:31.354Z,1.70
2022-12-12T11:35:35.749Z,1.60
2022-12-12T11:37:40.174Z,1.60
2022-12-12T11:39:44.279Z,1.70
2022-12-12T11:41:57.467Z,1.70
2022-12-12T11:44:00.877Z,1.70
2022-12-12T11:46:05.079Z,1.80
2022-12-12T11:48:24.033Z,1.80
2022-12-12T11:50:28.013Z,1.80
2022-12-12T11:52:31.658Z,1.80
2022-12-12T11:54:34.187Z,1.80
2022-12-12T11:56:41.181Z,1.90
2022-12-12T11:58:45.565Z,1.80
2022-12-12T12:00:50.719Z,1.80
2022-12-12T12:03:05.169Z,1.90
2022-12-12T12:05:11.468Z,1.90
2022-12-12T12:07:19.334Z,2.10
2022-12-12T12:09:31.741Z,2.00
2022-12-12T12:11:36.079Z,2.40
2022-12-12T12:13:43.278Z,2.60
2022-12-12T12:15:47.842Z,2.70
2022-12-12T12:17:58.177Z,2.80
2022-12-12T12:20:03.139Z,2.80
2022-12-12T12:22:08.309Z,2.80
2022-12-12T12:24:20.881Z,2.70
2022-12-12T12:26:26.146Z,2.70
2022-12-12T12:28:36.234Z,2.80
2022-12-12T12:30:41.990Z,2.80
2022-12-12T12:32:48.698Z,2.80
2022-12-12T12:34:54.481Z,2.90
2022-12-12T12:37:01.712Z,2.80
2022-12-12T12:39:07.335Z,2.80
2022-12-12T12:41:14.637Z,2.90
2022-12-12T12:43:22.039Z,2.80
2022-12-12T12:45:26.697Z,2.80
2022-12-12T12:47:31.712Z,2.80
2022-12-12T12:49:36.353Z,2.90
2022-12-12T12:51:45.468Z,2.90
2022-12-12T12:53:48.250Z,2.90
2022-12-12T12:55:52.724Z,2.90
2022-12-12T12:57:55.324Z,2.90
2022-12-12T12:59:59.507Z,2.70
2022-12-12T13:02:03.867Z,2.70
2022-12-12T13:04:08.275Z,2.60
2022-12-12T13:06:13.654Z,2.60
2022-12-12T13:08:18.530Z,2.60
2022-12-12T13:10:22.759Z,2.60
2022-12-12T13:12:27.217Z,2.60
2022-12-12T13:14:35.494Z,2.60
2022-12-12T13:16:38.535Z,2.60
2022-12-12T13:18:45.967Z,2.70
2022-12-12T13:20:48.349Z,2.70
2022-12-12T13:22:55.017Z,2.70
2022-12-12T13:25:00.296Z,2.70
2022-12-12T13:27:07.542Z,2.70
2022-12-12T13:29:15.694Z,2.70
2022-12-12T13:31:28.949Z,2.70
2022-12-12T13:33:38.807Z,2.70
2022-12-12T13:35:45.281Z,2.70
2022-12-12T13:37:50.414Z,2.60
2022-12-12T13:39:58.762Z,2.50
2022-12-12T13:42:02.479Z,2.60
2022-12-12T13:44:05.614Z,2.50
2022-12-12T13:46:27.299Z,2.50
2022-12-12T13:48:47.071Z,2.60
2022-12-12T13:50:54.828Z,2.50
2022-12-12T13:53:15.333Z,2.50
2022-12-12T13:55:22.001Z,2.60
2022-12-12T13:57:26.619Z,2.50
2022-12-12T13:59:30.023Z,2.50
2022-12-12T14:01:35.841Z,2.60
2022-12-12T14:03:38.391Z,2.50
2022-12-12T14:05:41.956Z,2.50
2022-12-12T14:07:49.055Z,2.40
2022-12-12T14:09:52.634Z,2.40
2022-12-12T14:11:57.158Z,2.40
2022-12-12T14:14:04.586Z,2.40
2022-12-12T14:16:09.486Z,2.40
2022-12-12T14:18:18.754Z,2.40
2022-12-12T14:20:25.130Z,2.40
2022-12-12T14:22:28.122Z,2.40
2022-12-12T14:24:55.779Z,2.40
2022-12-12T14:26:59.171Z,2.40
2022-12-12T14:29:20.773Z,2.30
2022-12-12T14:31:24.238Z,2.40
2022-12-12T14:33:48.753Z,2.30
2022-12-12T14:35:53.442Z,2.30
2022-12-12T14:37:59.103Z,2.30
2022-12-12T14:40:03.794Z,2.30
2022-12-12T14:42:07.969Z,2.30
2022-12-12T14:44:36.426Z,2.30
2022-12-12T14:46:20.285Z,2.30
2022-12-12T14:48:24.147Z,2.30
2022-12-12T14:50:27.112Z,2.30
2022-12-12T14:52:29.711Z,2.30
2022-12-12T14:54:32.236Z,2.30
2022-12-12T14:56:37.381Z,2.30
2022-12-12T14:58:41.353Z,2.30
2022-12-12T15:00:46.025Z,2.30
2022-12-12T15:02:49.933Z,2.30
2022-12-12T15:04:55.972Z,2.30
2022-12-12T15:06:59.041Z,2.30
2022-12-12T15:09:10.432Z,2.20
2022-12-12T15:11:13.781Z,2.20
2022-12-12T15:13:18.691Z,2.30
2022-12-12T15:15:26.135Z,2.30
2022-12-12T15:17:29.799Z,2.20
2022-12-12T15:19:34.187Z,2.20
2022-12-12T15:21:36.656Z,2.20
2022-12-12T15:23:40.366Z,2.10
2022-12-12T15:25:44.798Z,2.10
2022-12-12T15:27:55.325Z,2.00
2022-12-12T15:29:53.535Z,2.00
2022-12-12T15:31:58.427Z,1.90
2022-12-12T15:34:01.148Z,1.80
2022-12-12T15:36:04.804Z,1.70
2022-12-12T15:38:25.335Z,1.70
2022-12-12T15:40:30.699Z,1.70
2022-12-12T15:42:33.547Z,1.60
2022-12-12T15:44:36.445Z,1.60
2022-12-12T15:46:38.985Z,1.50
2022-12-12T15:48:42.471Z,1.60
2022-12-12T15:50:50.198Z,1.70
2022-12-12T15:53:00.347Z,1.70
2022-12-12T15:55:04.661Z,1.70
2022-12-12T15:57:28.798Z,1.70
2022-12-12T15:59:51.871Z,1.60
2022-12-12T16:01:56.316Z,1.60
2022-12-12T16:03:59.463Z,1.50
2022-12-12T16:06:03.885Z,1.40
2022-12-12T16:08:31.433Z,1.20
2022-12-12T16:10:31.278Z,1.20
2022-12-12T16:12:51.854Z,1.10
2022-12-12T16:14:55.001Z,1.10
2022-12-12T16:16:59.060Z,1.00
2022-12-12T16:19:02.151Z,0.90
2022-12-12T16:21:06.550Z,0.90
2022-12-12T16:23:10.316Z,0.80
2022-12-12T16:25:16.323Z,0.70
2022-12-12T16:27:19.349Z,0.60
2022-12-12T16:29:21.844Z,0.60
2022-12-12T16:31:24.366Z,0.60
2022-12-12T16:33:30.824Z,0.50
2022-12-12T16:35:33.886Z,0.50
2022-12-12T16:37:36.387Z,0.50
2022-12-12T16:39:45.668Z,0.50
2022-12-12T16:41:48.330Z,0.40
2022-12-12T16:43:50.817Z,0.50
2022-12-12T16:45:54.458Z,0.50
2022-12-12T16:47:57.971Z,0.50
2022-12-12T16:50:00.471Z,0.60
2022-12-12T16:52:02.985Z,0.40
2022-12-12T16:54:06.329Z,0.40
2022-12-12T16:56:10.181Z,0.40
2022-12-12T16:58:12.794Z,0.40
2022-12-12T17:00:17.024Z,0.40
2022-12-12T17:02:20.960Z,0.30
2022-12-12T17:04:24.148Z,0.30
2022-12-12T17:06:27.689Z,0.30
2022-12-12T17:08:30.367Z,0.40
2022-12-12T17:10:34.192Z,0.40
2022-12-12T17:12:38.286Z,0.30
2022-12-12T17:14:43.336Z,0.40
2022-12-12T17:16:46.864Z,0.40
2022-12-12T17:18:49.741Z,0.40
2022-12-12T17:20:52.243Z,0.40
2022-12-12T17:22:54.777Z,0.50
2022-12-12T17:24:57.253Z,0.50
2022-12-12T17:26:59.811Z,0.50
2022-12-12T17:29:03.186Z,0.50
2022-12-12T17:31:08.071Z,0.50
2022-12-12T17:33:19.199Z,0.50
2022-12-12T17:35:21.726Z,0.50
2022-12-12T17:37:24.248Z,0.50
2022-12-12T17:39:26.911Z,0.50
2022-12-12T17:41:29.400Z,0.50
2022-12-12T17:43:32.017Z,0.50
2022-12-12T17:45:34.727Z,0.40
2022-12-12T17:47:37.350Z,0.40
2022-12-12T17:49:39.888Z,0.30
2022-12-12T17:51:42.367Z,0.40
2022-12-12T17:53:44.868Z,0.40
2022-12-12T17:55:53.357Z,0.40
2022-12-12T17:57:51.949Z,0.40
2022-12-12T17:59:55.576Z,0.50
2022-12-12T18:01:58.046Z,0.40
2022-12-12T18:04:01.325Z,0.40
2022-12-12T18:06:04.430Z,0.40
2022-12-12T18:08:07.145Z,0.40
2022-12-12T18:10:10.104Z,0.30
2022-12-12T18:12:12.601Z,0.40
2022-12-12T18:14:17.736Z,0.40
2022-12-12T18:16:20.580Z,0.30
2022-12-12T18:18:23.180Z,0.30
2022-12-12T18:20:30.947Z,0.30
2022-12-12T18:22:30.299Z,0.30
2022-12-12T18:24:32.847Z,0.20
2022-12-12T18:26:35.367Z,0.20
2022-12-12T18:28:37.912Z,0.10
2022-12-12T18:30:40.467Z,0.10
2022-12-12T18:32:43.657Z,0.10
2022-12-12T18:34:46.234Z,0.10
2022-12-12T18:36:49.339Z,0.10
2022-12-12T18:38:51.930Z,0.10
2022-12-12T18:40:54.424Z,0.10
2022-12-12T18:42:56.932Z,0.20
2022-12-12T18:44:59.576Z,0.10
2022-12-12T18:47:02.119Z,0.10
2022-12-12T18:49:04.688Z,0.10
2022-12-12T18:51:08.246Z,0.10
2022-12-12T18:53:10.772Z,0.10
2022-12-12T18:55:13.505Z,0.10
2022-12-12T18:57:16.521Z,0.10
2022-12-12T18:59:19.105Z,0.00
2022-12-12T19:01:22.672Z,0.00
2022-12-12T19:03:25.192Z,0.10
2022-12-12T19:05:28.932Z,0.10
2022-12-12T19:07:31.486Z,0.00
2022-12-12T19:09:34.021Z,0.10
2022-12-12T19:11:38.018Z,0.00
2022-12-12T19:13:42.425Z,0.00
2022-12-12T19:15:45.742Z,0.00
2022-12-12T19:17:48.469Z,-0.10
2022-12-12T19:19:50.976Z,-0.10
2022-12-12T19:21:53.582Z,-0.10
2022-12-12T19:23:56.116Z,-0.20
2022-12-12T19:26:03.862Z,-0.10
2022-12-12T19:28:06.895Z,-0.10
2022-12-12T19:30:11.685Z,-0.10
2022-12-12T19:32:15.160Z,-0.10
2022-12-12T19:34:18.244Z,-0.10
2022-12-12T19:36:22.841Z,-0.10
2022-12-12T19:38:25.484Z,-0.10
2022-12-12T19:40:28.045Z,-0.20
2022-12-12T19:42:30.687Z,-0.20
2022-12-12T19:44:34.229Z,-0.20
2022-12-12T19:46:38.564Z,-0.20
2022-12-12T19:48:41.593Z,-0.20
2022-12-12T19:50:44.259Z,-0.20
2022-12-12T19:52:46.896Z,-0.20
2022-12-12T19:54:50.227Z,-0.20
2022-12-12T19:56:52.702Z,-0.20
2022-12-12T19:58:55.348Z,-0.20
2022-12-12T20:01:03.706Z,-0.30
2022-12-12T20:03:06.401Z,-0.30
2022-12-12T20:05:09.687Z,-0.20
2022-12-12T20:07:12.526Z,-0.20
2022-12-12T20:09:16.916Z,-0.20
2022-12-12T20:11:21.273Z,-0.20
2022-12-12T20:13:24.478Z,-0.20
2022-12-12T20:15:27.128Z,-0.30
2022-12-12T20:17:29.678Z,-0.30
2022-12-12T20:19:32.227Z,-0.30
2022-12-12T20:23:43.908Z,-0.30
2022-12-12T20:25:44.193Z,-0.40
2022-12-12T20:27:46.742Z,-0.50
2022-12-12T20:29:49.488Z,-0.50
2022-12-12T20:31:53.672Z,-0.50
2022-12-12T20:33:57.056Z,-0.60
2022-12-12T20:36:01.168Z,-0.50
2022-12-12T20:38:03.648Z,-0.50
2022-12-12T20:40:07.772Z,-0.50
2022-12-12T20:42:10.988Z,-0.50
2022-12-12T20:44:13.597Z,-0.50
2022-12-12T20:46:17.295Z,-0.60
2022-12-12T20:48:19.949Z,-0.60
2022-12-12T20:50:22.496Z,-0.60
2022-12-12T20:52:25.051Z,-0.50
2022-12-12T20:54:28.394Z,-0.60
2022-12-12T20:56:31.557Z,-0.60
2022-12-12T20:58:34.507Z,-0.60
2022-12-12T21:00:38.592Z,-0.60
2022-12-12T21:02:41.140Z,-0.70
2022-12-12T21:04:43.924Z,-0.70
2022-12-12T21:06:48.837Z,-0.60
2022-12-12T21:08:51.844Z,-0.70
2022-12-12T21:10:54.418Z,-0.70
2022-12-12T21:12:57.056Z,-0.70
2022-12-12T21:15:02.691Z,-0.70
2022-12-12T21:17:04.513Z,-0.70
2022-12-12T21:19:10.812Z,-0.80
2022-12-12T21:21:13.732Z,-0.80
2022-12-12T21:23:19.398Z,-0.80
2022-12-12T21:25:23.864Z,-0.80
2022-12-12T21:27:26.367Z,-0.90
2022-12-12T21:29:28.932Z,-1.00
2022-12-12T21:31:32.518Z,-1.00
2022-12-12T21:33:35.468Z,-1.10
2022-12-12T21:35:37.989Z,-1.10
2022-12-12T21:37:40.854Z,-1.20
2022-12-12T21:39:44.173Z,-1.20
2022-12-12T21:41:46.767Z,-1.20
2022-12-12T21:43:49.392Z,-1.10
2022-12-12T21:45:51.882Z,-1.20
2022-12-12T21:47:54.385Z,-1.20
2022-12-12T21:49:56.962Z,-1.20
2022-12-12T21:52:00.561Z,-1.20
2022-12-12T21:54:03.722Z,-1.20
2022-12-12T21:56:07.258Z,-1.30
2022-12-12T21:58:10.019Z,-1.30
2022-12-12T22:00:13.508Z,-1.40
2022-12-12T22:02:35.914Z,-1.30
2022-12-12T22:04:38.622Z,-1.60
2022-12-12T22:06:41.089Z,-1.50
2022-12-12T22:08:43.999Z,-1.60
2022-12-12T22:10:46.489Z,-1.70
2022-12-12T22:12:57.156Z,-1.80
2022-12-12T22:14:57.484Z,-2.00
2022-12-12T22:17:00.000Z,-1.80
2022-12-12T22:19:06.024Z,-1.80
2022-12-12T22:21:09.616Z,-1.90
2022-12-12T22:23:12.193Z,-1.80
2022-12-12T22:25:15.221Z,-1.80
2022-12-12T22:27:18.451Z,-1.80
2022-12-12T22:29:21.343Z,-1.90
2022-12-12T22:31:26.114Z,-1.90
2022-12-12T22:33:29.003Z,-2.00
2022-12-12T22:35:31.887Z,-2.00
2022-12-12T22:37:35.526Z,-2.00
2022-12-12T22:39:38.919Z,-1.90
2022-12-12T22:41:41.614Z,-2.00
2022-12-12T22:43:44.141Z,-1.90
2022-12-12T22:45:46.621Z,-1.90
2022-12-12T22:47:50.374Z,-2.00
2022-12-12T22:49:53.321Z,-2.00
2022-12-12T22:51:56.558Z,-2.00
2022-12-12T22:54:00.074Z,-2.00
2022-12-12T22:56:02.898Z,-2.00
2022-12-12T22:58:05.385Z,-1.90
2022-12-12T23:00:10.037Z,-1.90
2022-12-12T23:02:12.719Z,-1.90
2022-12-12T23:04:15.474Z,-2.00
2022-12-12T23:06:19.168Z,-2.10
2022-12-12T23:08:21.821Z,-2.10
2022-12-12T23:10:24.480Z,-2.20
2022-12-12T23:12:27.014Z,-2.30
2022-12-12T23:14:29.618Z,-2.30
2022-12-12T23:16:33.907Z,-2.30
2022-12-12T23:18:38.142Z,-2.30
2022-12-12T23:20:40.705Z,-2.40
2022-12-12T23:22:45.026Z,-2.30
2022-12-12T23:24:47.548Z,-2.30
2022-12-12T23:26:50.517Z,-2.30
2022-12-12T23:28:53.621Z,-2.30
2022-12-12T23:30:56.194Z,-2.20
2022-12-12T23:32:59.042Z,-2.20
2022-12-12T23:35:01.570Z,-2.30
2022-12-12T23:37:04.100Z,-2.30
2022-12-12T23:39:07.409Z,-2.30
2022-12-12T23:41:10.894Z,-2.40
2022-12-12T23:43:13.459Z,-2.40
2022-12-12T23:45:16.539Z,-2.40
2022-12-12T23:47:19.478Z,-2.40
2022-12-12T23:49:23.002Z,-2.40
2022-12-12T23:51:26.017Z,-2.40
2022-12-12T23:53:32.271Z,-2.50
2022-12-12T23:55:34.750Z,-2.60
2022-12-12T23:57:37.250Z,-2.60
2022-12-12T23:59:41.369Z,-2.60
